createdAt,value
2022-11-18T00:08:33.968Z,963.18
2022-11-18T00:20:34.423Z,963.09
2022-11-18T00:32:34.870Z,963.24
2022-11-18T00:44:35.327Z,963.16
2022-11-18T00:56:35.802Z,963.29
2022-11-18T01:08:36.236Z,963.33
2022-11-18T01:20:36.662Z,963.11
2022-11-18T01:32:37.105Z,963.16
2022-11-18T01:44:37.568Z,963.02
2022-11-18T01:56:38.045Z,962.85
2022-11-18T02:08:38.441Z,962.73
2022-11-18T02:20:38.910Z,962.64
2022-11-18T02:32:39.422Z,962.52
2022-11-18T02:44:39.819Z,962.13
2022-11-18T02:56:40.302Z,962.42
2022-11-18T03:08:40.751Z,962.26
2022-11-18T03:20:41.238Z,962.40
2022-11-18T03:32:41.643Z,962.31
2022-11-18T03:44:42.116Z,962.27
2022-11-18T03:56:42.557Z,962.20
2022-11-18T04:08:43.024Z,962.30
2022-11-18T04:20:43.448Z,962.25
2022-11-18T04:32:43.881Z,962.23
2022-11-18T04:44:44.389Z,961.99
2022-11-18T04:56:48.814Z,961.86
2022-11-18T05:08:45.278Z,962.04
2022-11-18T05:20:45.680Z,962.10
2022-11-18T05:32:46.150Z,962.01
2022-11-18T05:44:46.614Z,962.15
2022-11-18T05:56:47.061Z,962.36
2022-11-18T06:08:47.498Z,962.11
2022-11-18T06:20:48.007Z,961.94
2022-11-18T06:32:48.467Z,961.79
2022-11-18T06:44:48.914Z,961.98
2022-11-18T06:56:49.306Z,962.28
2022-11-18T07:08:49.785Z,962.17
2022-11-18T07:20:50.253Z,962.31
2022-11-18T07:32:50.663Z,962.33
2022-11-18T07:44:51.157Z,962.54
2022-11-18T07:56:51.600Z,962.52
2022-11-18T08:08:52.096Z,962.48
2022-11-18T08:20:52.486Z,962.62
2022-11-18T08:32:52.949Z,962.54
2022-11-18T08:44:53.381Z,962.47
2022-11-18T08:56:53.866Z,962.29
2022-11-18T09:08:54.293Z,962.25
2022-11-18T09:20:54.777Z,962.16
2022-11-18T09:32:55.230Z,962.29
2022-11-18T09:44:55.635Z,962.25
2022-11-18T09:56:56.213Z,962.29
2022-11-18T10:08:56.561Z,962.33
2022-11-18T10:20:57.044Z,962.50
2022-11-18T10:32:57.489Z,962.32
2022-11-18T10:44:57.920Z,962.26
2022-11-18T10:56:58.726Z,962.01
2022-11-18T11:08:58.831Z,961.87
2022-11-18T11:20:59.281Z,961.74
2022-11-18T11:32:59.749Z,961.68
2022-11-18T11:45:00.172Z,961.73
2022-11-18T11:57:00.614Z,961.68
2022-11-18T12:09:01.114Z,961.69
2022-11-18T12:21:01.501Z,961.69
2022-11-18T12:33:01.972Z,961.63
2022-11-18T12:45:02.458Z,961.58
2022-11-18T12:57:02.908Z,961.56
2022-11-18T13:09:03.312Z,961.51
2022-11-18T13:21:03.784Z,961.61
2022-11-18T13:33:04.266Z,961.49
2022-11-18T13:45:04.729Z,961.62
2022-11-18T13:57:05.127Z,961.56
2022-11-18T14:09:05.603Z,961.63
2022-11-18T14:21:06.054Z,961.86
2022-11-18T14:33:06.508Z,961.87
2022-11-18T14:45:06.978Z,962.01
2022-11-18T14:57:07.406Z,962.08
2022-11-18T15:09:07.846Z,962.22
2022-11-18T15:21:08.339Z,962.23
2022-11-18T15:33:08.780Z,962.39
2022-11-18T15:45:09.240Z,962.43
2022-11-18T15:57:09.663Z,962.50
2022-11-18T16:09:10.125Z,962.64
2022-11-18T16:21:10.530Z,962.82
2022-11-18T16:33:11.021Z,963.00
2022-11-18T16:45:11.481Z,963.21
2022-11-18T16:57:11.968Z,963.53
2022-11-18T17:09:12.521Z,963.71
2022-11-18T17:21:12.848Z,963.86
2022-11-18T17:33:13.286Z,963.98
2022-11-18T17:45:13.808Z,964.20
2022-11-18T17:57:14.178Z,964.43
2022-11-18T18:09:14.651Z,964.60
2022-11-18T18:21:15.098Z,964.79
2022-11-18T18:33:15.576Z,964.89
2022-11-18T18:45:15.971Z,965.03
2022-11-18T18:57:16.430Z,965.28
2022-11-18T19:09:16.909Z,965.62
2022-11-18T19:21:17.403Z,965.81
2022-11-18T19:33:17.818Z,966.04
2022-11-18T19:45:18.247Z,966.31
2022-11-18T19:57:18.718Z,966.48
2022-11-18T20:09:19.631Z,966.71
2022-11-18T20:21:19.628Z,967.01
2022-11-18T20:33:20.082Z,967.22
2022-11-18T20:45:20.545Z,967.34
2022-11-18T20:57:21.018Z,967.58
2022-11-18T21:09:21.708Z,967.42
2022-11-18T21:21:21.889Z,967.51
2022-11-18T21:33:22.329Z,967.55
2022-11-18T21:45:22.806Z,967.56
2022-11-18T21:57:23.256Z,967.68
2022-11-18T22:09:23.698Z,967.83
2022-11-18T22:21:24.174Z,967.72
2022-11-18T22:33:24.638Z,967.93
2022-11-18T22:45:25.055Z,968.18
2022-11-18T22:57:25.514Z,968.38
2022-11-18T23:09:25.962Z,968.31
2022-11-18T23:21:26.462Z,968.48
2022-11-18T23:33:26.875Z,968.56
2022-11-18T23:45:27.334Z,968.40
2022-11-18T23:57:27.770Z,968.39
